Bruce Mines, Canada
Current Conditions -  °F | °C
As of 10:14 AM on Wednesday 22 Oct 2014 (Local Time) from KDRM Reporting Station
Clear Clear  
Wind Chill:   Ceiling: Unl
Heat Index:   Visibility: 10mi
Dew Point:   Wind: 3mph
Humidity: 83%   Direction: 70°ENE
Pressure: 30.41"   Gusts: NA
Location:  46.3°N, 83.79°W
Report Text: KDRM 221414Z AUTO 07003KT 10SM CLR 04/02 A3041 RMK AO2 T00420015
Loading
Personal Weather Stations






























Interactive Weather Map
Tropical Storm Tracking
New forecast layout! Learn more

10-Day Weather Forecast

Advertisements
Track Severe Weather on mobile